createdAt,value
2023-04-18T00:01:52.208Z,6.07
2023-04-18T00:06:56.738Z,6.04
2023-04-18T00:11:59.931Z,5.90
2023-04-18T00:17:03.134Z,5.94
2023-04-18T00:22:08.312Z,5.95
2023-04-18T00:27:11.579Z,5.94
2023-04-18T00:32:15.077Z,5.98
2023-04-18T00:37:19.650Z,5.89
2023-04-18T00:42:22.882Z,5.61
2023-04-18T00:47:26.298Z,5.59
2023-04-18T00:52:33.741Z,5.70
2023-04-18T00:57:37.541Z,5.62
2023-04-18T01:02:41.335Z,5.53
2023-04-18T01:07:46.084Z,5.58
2023-04-18T01:12:49.292Z,5.59
2023-04-18T01:17:52.313Z,5.46
2023-04-18T01:22:59.384Z,5.44
2023-04-18T01:28:04.654Z,5.72
2023-04-18T01:33:07.954Z,5.50
2023-04-18T01:38:11.516Z,5.41
2023-04-18T01:43:16.099Z,5.56
2023-04-18T01:48:19.334Z,5.63
2023-04-18T01:53:24.050Z,5.71
2023-04-18T01:58:28.742Z,5.50
2023-04-18T02:03:33.200Z,5.31
2023-04-18T02:08:36.725Z,5.51
2023-04-18T02:13:44.590Z,5.59
2023-04-18T02:18:48.263Z,5.64
2023-04-18T02:23:51.680Z,5.68
2023-04-18T02:28:59.850Z,5.51
2023-04-18T02:34:05.656Z,5.54
2023-04-18T02:39:08.845Z,5.61
2023-04-18T02:44:13.625Z,5.52
2023-04-18T02:49:17.856Z,5.73
2023-04-18T02:54:21.301Z,5.44
2023-04-18T02:59:37.791Z,5.47
2023-04-18T03:04:59.317Z,5.49
2023-04-18T03:10:03.281Z,5.71
2023-04-18T03:15:12.466Z,5.55
2023-04-18T03:20:15.905Z,5.67
2023-04-18T03:25:19.369Z,5.66
2023-04-18T03:30:29.032Z,5.77
2023-04-18T03:35:34.448Z,5.51
2023-04-18T03:40:38.052Z,5.68
2023-04-18T03:45:50.111Z,5.47
2023-04-18T03:50:54.540Z,5.58
2023-04-18T03:55:58.031Z,5.65
2023-04-18T04:01:15.774Z,5.54
2023-04-18T04:06:20.115Z,5.37
2023-04-18T04:11:24.131Z,5.58
2023-04-18T04:16:30.318Z,5.68
2023-04-18T04:21:34.158Z,5.75
2023-04-18T04:26:38.112Z,5.87
2023-04-18T04:31:50.550Z,5.87
2023-04-18T04:37:14.292Z,6.13
2023-04-18T04:42:32.890Z,6.12
2023-04-18T04:47:44.496Z,6.00
2023-04-18T04:52:47.728Z,5.92
2023-04-18T04:57:51.042Z,5.76
2023-04-18T05:03:11.679Z,5.88
2023-04-18T05:08:15.106Z,5.92
2023-04-18T05:13:18.364Z,6.16
2023-04-18T05:18:22.952Z,6.24
2023-04-18T05:23:26.054Z,6.13
2023-04-18T05:28:29.307Z,6.36
2023-04-18T05:33:33.852Z,6.30
2023-04-18T05:38:36.906Z,6.28
2023-04-18T05:43:41.814Z,6.12
2023-04-18T05:48:47.751Z,6.20
2023-04-18T05:53:51.052Z,6.08
2023-04-18T05:58:54.266Z,5.98
2023-04-18T06:03:58.881Z,6.35
2023-04-18T06:09:02.153Z,6.12
2023-04-18T06:14:05.322Z,6.12
2023-04-18T06:19:09.833Z,6.12
2023-04-18T06:24:13.156Z,6.20
2023-04-18T06:29:18.240Z,6.09
2023-04-18T06:34:23.013Z,6.11
2023-04-18T06:39:27.920Z,6.38
2023-04-18T06:44:32.107Z,6.37
2023-04-18T06:49:36.716Z,6.43
2023-04-18T06:54:39.954Z,6.38
2023-04-18T06:59:43.244Z,6.25
2023-04-18T07:04:49.169Z,6.64
2023-04-18T07:09:52.804Z,6.78
2023-04-18T07:14:56.015Z,6.74
2023-04-18T07:20:00.873Z,6.93
2023-04-18T07:25:04.204Z,6.83
2023-04-18T07:30:08.777Z,6.87
2023-04-18T07:35:13.293Z,6.91
2023-04-18T07:40:16.640Z,6.81
2023-04-18T07:45:20.092Z,7.01
2023-04-18T07:50:25.218Z,6.93
2023-04-18T07:55:28.447Z,6.93
2023-04-18T08:00:32.837Z,7.04
2023-04-18T08:05:37.602Z,6.64
2023-04-18T08:10:40.913Z,7.14
2023-04-18T08:15:44.059Z,6.85
2023-04-18T08:20:48.576Z,6.96
2023-04-18T08:25:51.994Z,7.11
2023-04-18T08:30:57.241Z,7.09
2023-04-18T08:36:02.099Z,7.18
2023-04-18T08:41:05.560Z,7.02
2023-04-18T08:46:09.214Z,6.84
2023-04-18T08:51:13.831Z,6.83
2023-04-18T08:56:17.150Z,7.18
2023-04-18T09:01:21.469Z,7.55
2023-04-18T09:06:28.736Z,7.52
2023-04-18T09:11:34.488Z,7.29
2023-04-18T09:16:47.797Z,7.18
2023-04-18T09:22:00.044Z,7.32
2023-04-18T09:27:04.427Z,7.14
2023-04-18T09:32:07.875Z,7.03
2023-04-18T09:37:13.403Z,7.36
2023-04-18T09:42:16.989Z,7.42
2023-04-18T09:47:20.658Z,7.49
2023-04-18T09:52:26.851Z,7.34
2023-04-18T09:57:31.916Z,7.35
2023-04-18T10:02:46.031Z,7.31
2023-04-18T10:07:51.702Z,7.52
2023-04-18T10:12:56.502Z,7.77
2023-04-18T10:18:05.649Z,7.58
2023-04-18T10:23:38.411Z,7.68
2023-04-18T10:28:53.277Z,7.71
2023-04-18T10:39:22.789Z,8.04
2023-04-18T10:44:27.055Z,7.89
2023-04-18T10:49:34.103Z,8.08
2023-04-18T10:54:42.997Z,7.70
2023-04-18T10:59:50.479Z,7.66
2023-04-18T11:04:55.514Z,7.74
2023-04-18T11:10:00.068Z,7.51
2023-04-18T11:15:04.897Z,7.52
2023-04-18T11:20:11.267Z,7.42
2023-04-18T11:25:16.360Z,7.62
2023-04-18T11:30:20.002Z,7.54
2023-04-18T11:35:25.192Z,7.87
2023-04-18T11:40:30.039Z,8.30
2023-04-18T11:45:33.299Z,8.16
2023-04-18T11:50:37.972Z,8.36
2023-04-18T11:55:42.605Z,8.34
2023-04-18T12:00:45.811Z,8.42
2023-04-18T12:05:49.369Z,8.56
2023-04-18T12:10:55.220Z,8.86
2023-04-18T12:15:58.412Z,8.81
2023-04-18T12:21:02.407Z,9.06
2023-04-18T12:26:08.199Z,8.91
2023-04-18T12:31:11.510Z,8.84
2023-04-18T12:36:14.656Z,8.76
2023-04-18T12:41:19.252Z,8.85
2023-04-18T12:46:22.431Z,8.79
2023-04-18T12:51:26.263Z,8.83
2023-04-18T12:56:30.884Z,8.77
2023-04-18T13:01:34.139Z,8.73
2023-04-18T13:06:40.354Z,8.86
2023-04-18T13:11:45.195Z,8.68
2023-04-18T13:16:48.755Z,8.69
2023-04-18T13:21:53.235Z,8.73
2023-04-18T13:26:58.030Z,8.89
2023-04-18T13:32:01.355Z,8.87
2023-04-18T13:37:04.695Z,9.04
2023-04-18T13:42:09.386Z,8.71
2023-04-18T13:47:12.822Z,9.01
2023-04-18T13:52:16.338Z,9.01
2023-04-18T13:57:21.974Z,8.91
2023-04-18T14:02:25.294Z,8.98
2023-04-18T14:07:28.676Z,8.83
2023-04-18T14:12:33.240Z,8.81
2023-04-18T14:17:36.658Z,8.72
2023-04-18T14:22:39.784Z,8.86
2023-04-18T14:27:48.272Z,8.80
2023-04-18T14:32:51.667Z,8.81
2023-04-18T14:37:55.176Z,8.67
2023-04-18T14:42:59.761Z,8.76
2023-04-18T14:48:03.157Z,8.67
2023-04-18T14:53:06.320Z,8.80
2023-04-18T14:58:11.465Z,8.77
2023-04-18T15:03:14.920Z,8.86
2023-04-18T15:08:18.172Z,8.73
2023-04-18T15:13:22.889Z,8.74
2023-04-18T15:18:26.036Z,8.75
2023-04-18T15:23:29.379Z,8.73
2023-04-18T15:28:33.872Z,8.78
2023-04-18T15:33:37.522Z,8.62
2023-04-18T15:38:41.111Z,8.67
2023-04-18T15:43:46.744Z,8.63
2023-04-18T15:48:50.329Z,8.76
2023-04-18T15:53:53.718Z,8.52
2023-04-18T15:59:00.308Z,8.61
2023-04-18T16:04:04.314Z,8.63
2023-04-18T16:09:08.193Z,8.50
2023-04-18T16:14:13.152Z,8.49
2023-04-18T16:19:18.262Z,8.36
2023-04-18T16:24:21.891Z,8.32
2023-04-18T16:29:27.778Z,8.30
2023-04-18T16:34:31.090Z,8.30
2023-04-18T16:39:35.371Z,8.34
2023-04-18T16:44:40.541Z,8.25
2023-04-18T16:49:46.513Z,8.28
2023-04-18T16:54:54.367Z,8.15
2023-04-18T17:00:02.338Z,8.23
2023-04-18T17:05:09.712Z,8.19
2023-04-18T17:10:13.156Z,8.36
2023-04-18T17:15:20.371Z,8.10
2023-04-18T17:20:23.998Z,8.20
2023-04-18T17:25:27.190Z,8.15
2023-04-18T17:30:31.787Z,8.28
2023-04-18T17:35:37.032Z,8.04
2023-04-18T17:40:41.726Z,8.24
2023-04-18T17:45:47.405Z,8.09
2023-04-18T17:50:50.514Z,7.95
2023-04-18T17:55:55.356Z,8.05
2023-04-18T18:01:00.330Z,7.96
2023-04-18T18:06:03.783Z,8.00
2023-04-18T18:11:08.684Z,7.98
2023-04-18T18:16:20.095Z,7.89
2023-04-18T18:21:26.335Z,7.94
2023-04-18T18:26:33.656Z,7.84
2023-04-18T18:31:39.526Z,7.93
2023-04-18T18:36:45.644Z,7.94
2023-04-18T18:41:49.463Z,7.84
2023-04-18T18:46:54.131Z,7.90
2023-04-18T18:52:04.020Z,7.89
2023-04-18T18:57:07.582Z,7.90
2023-04-18T19:02:15.928Z,7.79
2023-04-18T19:07:20.592Z,7.82
2023-04-18T19:12:32.569Z,7.76
2023-04-18T19:17:38.288Z,7.85
2023-04-18T19:22:41.885Z,7.87
2023-04-18T19:27:46.247Z,7.98
2023-04-18T19:32:58.997Z,7.83
2023-04-18T19:38:03.044Z,7.93
2023-04-18T19:43:06.276Z,7.87
2023-04-18T19:48:10.881Z,7.85
2023-04-18T19:53:18.798Z,7.83
2023-04-18T19:58:35.430Z,7.70
2023-04-18T20:03:40.605Z,7.87
2023-04-18T20:08:46.028Z,7.84
2023-04-18T20:13:52.241Z,7.80
2023-04-18T20:18:57.631Z,7.83
2023-04-18T20:24:01.485Z,7.85
2023-04-18T20:29:05.723Z,7.78
2023-04-18T20:34:13.588Z,7.69
2023-04-18T20:39:16.949Z,7.82
2023-04-18T20:44:24.829Z,7.70
2023-04-18T20:49:30.469Z,7.80
2023-04-18T20:54:33.543Z,7.74
2023-04-18T20:59:36.879Z,7.83
2023-04-18T21:04:41.436Z,7.85
2023-04-18T21:09:44.570Z,7.84
2023-04-18T21:14:48.051Z,7.77
2023-04-18T21:19:52.812Z,7.97
2023-04-18T21:24:55.941Z,7.76
2023-04-18T21:29:58.976Z,7.78
2023-04-18T21:35:03.549Z,7.99
2023-04-18T21:40:08.398Z,7.92
2023-04-18T21:45:12.612Z,8.04
2023-04-18T21:50:17.249Z,8.17
2023-04-18T21:55:20.472Z,8.10
2023-04-18T22:00:24.947Z,7.84
2023-04-18T22:05:29.771Z,8.11
2023-04-18T22:10:34.902Z,8.07
2023-04-18T22:15:39.416Z,8.07
2023-04-18T22:20:43.818Z,8.05
2023-04-18T22:25:46.941Z,7.96
2023-04-18T22:30:50.160Z,8.25
2023-04-18T22:35:55.664Z,8.25
2023-04-18T22:41:00.306Z,8.29
2023-04-18T22:46:04.003Z,8.13
2023-04-18T22:51:08.861Z,8.27
2023-04-18T22:56:12.219Z,8.19
2023-04-18T23:01:15.613Z,8.21
2023-04-18T23:06:20.196Z,8.04
2023-04-18T23:11:23.380Z,7.99
2023-04-18T23:16:26.690Z,8.12
2023-04-18T23:21:40.277Z,8.06
2023-04-18T23:26:43.575Z,8.00
2023-04-18T23:31:46.912Z,8.03
2023-04-18T23:36:51.558Z,7.98
2023-04-18T23:41:54.645Z,7.89
2023-04-18T23:46:59.413Z,7.99
2023-04-18T23:52:04.497Z,7.81
2023-04-18T23:57:07.619Z,7.94
